Time;durP1;ratioP1;P1;durP2;ratioP2;P2;SDS_P1;SDS_P2;PMS_P1;PMS_P2;Temp;Humidity;BMP_temperature;BMP_pressure;BME280_temperature;BME280_humidity;BME280_pressure;Samples;Min_cycle;Max_cycle;Signal;HPM_P1;HPM_P2
2023/01/01 00:00:16;;;;;;;52.23;36.90;;;15.20;62.30;;;;;;6229117;23;20438;-87
2023/01/01 00:02:44;;;;;;;44.60;33.23;;;15.10;78.90;;;;;;6231844;23;20426;-86
2023/01/01 00:05:11;;;;;;;31.67;26.50;;;15.20;41.00;;;;;;6237966;23;20427;-87
2023/01/01 00:07:38;;;;;;;28.23;22.30;;;15.20;16.40;;;;;;6237327;23;20426;-85
2023/01/01 00:12:50;;;;;;;22.93;18.93;;;15.20;12.10;;;;;;6232363;23;20398;-87
2023/01/01 00:15:17;;;;;;;28.47;21.03;;;15.20;7.90;;;;;;6234534;23;20449;-86
2023/01/01 00:17:45;;;;;;;21.67;18.73;;;15.10;14.80;;;;;;6231840;23;20817;-86
2023/01/01 00:20:12;;;;;;;23.47;17.93;;;15.10;15.40;;;;;;6232939;23;20445;-86
2023/01/01 00:22:39;;;;;;;17.13;15.37;;;15.10;1.00;;;;;;6236326;23;20430;-86
2023/01/01 00:25:07;;;;;;;15.80;14.10;;;15.10;1.00;;;;;;6243318;22;20438;-86
2023/01/01 00:27:34;;;;;;;19.83;13.07;;;15.10;1.00;;;;;;6244536;22;20390;-84
2023/01/01 00:30:01;;;;;;;21.53;13.50;;;15.30;1.00;;;;;;6244332;22;20386;-85
2023/01/01 00:32:27;;;;;;;13.50;11.20;;;15.10;99.90;;;;;;6244354;22;20361;-84
2023/01/01 00:34:56;;;;;;;12.40;9.37;;;15.30;1.00;;;;;;6244665;22;20419;-85
2023/01/01 00:37:22;;;;;;;17.83;11.43;;;15.40;1.00;;;;;;6243800;22;20403;-85
2023/01/01 00:39:49;;;;;;;12.03;8.50;;;15.20;1.00;;;;;;6236607;23;20469;-86
2023/01/01 00:42:16;;;;;;;10.43;9.33;;;15.30;1.00;;;;;;6234219;23;20403;-87
2023/01/01 00:44:43;;;;;;;9.57;7.80;;;15.20;1.00;;;;;;6233790;23;20451;-86
2023/01/01 00:47:10;;;;;;;11.07;8.00;;;15.20;1.00;;;;;;6233253;23;20414;-86
2023/01/01 00:49:37;;;;;;;17.03;9.40;;;15.20;1.00;;;;;;6233023;23;20403;-86
2023/01/01 00:52:05;;;;;;;12.63;8.63;;;15.20;1.00;;;;;;6233278;23;20402;-87
2023/01/01 00:54:32;;;;;;;13.37;7.60;;;15.20;1.00;;;;;;6232856;23;20429;-87
2023/01/01 00:56:59;;;;;;;9.17;7.97;;;15.20;1.00;;;;;;6232822;23;20406;-86
2023/01/01 00:59:25;;;;;;;8.77;6.27;;;15.30;1.00;;;;;;6231741;23;20442;-86
2023/01/01 01:01:52;;;;;;;13.00;8.33;;;15.20;1.00;;;;;;6233194;23;20402;-87
2023/01/01 01:04:19;;;;;;;7.93;6.23;;;15.50;99.90;;;;;;6232028;23;20449;-87
2023/01/01 01:06:46;;;;;;;10.43;7.53;;;15.20;1.00;;;;;;6232657;23;20403;-87
2023/01/01 01:09:14;;;;;;;11.50;9.80;;;15.40;99.90;;;;;;6232895;23;20406;-86
2023/01/01 01:11:41;;;;;;;22.23;16.27;;;15.10;1.00;;;;;;6232950;23;20417;-86
2023/01/01 01:14:08;;;;;;;14.70;9.20;;;15.10;81.40;;;;;;6232256;23;20414;-87
2023/01/01 01:16:35;;;;;;;10.90;8.03;;;15.10;1.00;;;;;;6233141;23;20411;-87
2023/01/01 01:19:05;;;;;;;7.50;6.17;;;15.20;1.00;;;;;;6233096;23;20416;-87
2023/01/01 01:21:34;;;;;;;11.67;7.30;;;15.70;1.00;;;;;;6235094;23;20402;-87
2023/01/01 01:24:02;;;;;;;7.50;6.00;;;15.20;1.00;;;;;;6235496;23;20429;-85
2023/01/01 01:26:31;;;;;;;8.43;6.90;;;15.30;1.00;;;;;;6236237;23;20475;-88
2023/01/01 01:29:00;;;;;;;9.13;6.43;;;15.20;1.00;;;;;;6235120;23;20404;-87
2023/01/01 01:31:30;;;;;;;9.93;7.87;;;15.20;1.00;;;;;;6233105;23;20832;-88
2023/01/01 01:33:57;;;;;;;7.50;6.70;;;15.20;1.00;;;;;;6233184;23;20410;-88
2023/01/01 01:36:25;;;;;;;7.50;5.90;;;15.20;1.00;;;;;;6233547;23;20446;-86
2023/01/01 01:38:52;;;;;;;7.90;5.37;;;;;;;;;;6233155;23;20413;-85
2023/01/01 01:41:21;;;;;;;13.30;7.87;;;15.10;1.00;;;;;;6232112;23;20537;-86
2023/01/01 01:43:55;;;;;;;11.37;6.87;;;15.10;1.00;;;;;;6230809;23;20430;-88
2023/01/01 01:46:28;;;;;;;8.97;6.87;;;15.10;1.00;;;;;;6231203;23;20948;-87
2023/01/01 01:48:59;;;;;;;11.77;8.17;;;15.40;99.90;;;;;;6242956;22;20379;-86
2023/01/01 01:51:29;;;;;;;7.20;5.60;;;15.20;1.00;;;;;;6243662;22;20349;-85
2023/01/01 01:54:02;;;;;;;11.77;7.43;;;15.20;1.00;;;;;;6232669;23;20425;-86
2023/01/01 01:56:38;;;;;;;7.73;6.13;;;15.10;1.00;;;;;;6230158;23;20421;-87
2023/01/01 01:59:06;;;;;;;15.30;7.30;;;15.10;1.00;;;;;;6233396;23;20411;-87
2023/01/01 02:01:33;;;;;;;9.73;6.90;;;15.20;1.00;;;;;;6233387;23;20414;-86
2023/01/01 02:04:01;;;;;;;11.37;6.90;;;15.20;1.00;;;;;;6240552;23;20406;-85
2023/01/01 02:06:30;;;;;;;19.27;8.23;;;15.20;1.00;;;;;;6234092;23;20402;-86
2023/01/01 02:09:00;;;;;;;10.33;7.20;;;15.10;1.00;;;;;;6232409;23;20400;-84
2023/01/01 02:11:27;;;;;;;20.73;8.50;;;15.00;1.00;;;;;;6230615;23;20489;-87
2023/01/01 02:13:56;;;;;;;10.90;7.53;;;15.20;1.00;;;;;;6232819;23;20413;-87
2023/01/01 02:16:33;;;;;;;8.43;6.80;;;15.10;1.00;;;;;;6232896;23;20969;-86
2023/01/01 02:19:06;;;;;;;11.83;7.20;;;15.20;1.00;;;;;;6232688;23;20845;-87
2023/01/01 02:21:39;;;;;;;12.93;7.10;;;15.10;1.00;;;;;;6232871;23;20522;-87
2023/01/01 02:24:27;;;;;;;10.00;7.03;;;15.00;56.20;;;;;;6231310;23;20817;-86
2023/01/01 02:26:59;;;;;;;11.20;7.53;;;15.20;1.00;;;;;;6247342;22;20480;-82
2023/01/01 02:29:38;;;;;;;9.67;8.40;;;15.20;1.00;;;;;;6253029;22;20382;-81
2023/01/01 02:32:08;;;;;;;14.93;8.67;;;15.50;95.50;;;;;;6252990;22;20386;-82
2023/01/01 02:34:38;;;;;;;11.40;8.80;;;15.20;1.00;;;;;;6255357;22;20429;-80
2023/01/01 02:37:08;;;;;;;11.30;7.00;;;15.10;1.00;;;;;;6228034;22;20418;-81
2023/01/01 02:39:39;;;;;;;9.90;6.90;;;15.00;1.00;;;;;;6228108;23;20790;-81
2023/01/01 02:42:08;;;;;;;10.70;6.20;;;15.00;1.00;;;;;;6226783;23;20393;-82
2023/01/01 02:44:41;;;;;;;11.93;6.43;;;15.10;1.00;;;;;;6226523;23;20413;-81
2023/01/01 02:47:13;;;;;;;15.03;7.00;;;15.00;1.00;;;;;;6223813;23;20453;-80
2023/01/01 02:49:47;;;;;;;11.33;5.50;;;15.00;84.80;;;;;;6222788;23;20463;-81
2023/01/01 02:52:25;;;;;;;11.10;6.57;;;15.10;90.20;;;;;;6222827;23;20492;-81
2023/01/01 02:54:59;;;;;;;6.60;5.90;;;15.10;82.70;;;;;;6222475;23;20432;-81
2023/01/01 02:57:35;;;;;;;7.60;6.27;;;15.10;1.00;;;;;;6222537;23;20428;-81
2023/01/01 03:00:18;;;;;;;9.33;7.00;;;15.00;1.00;;;;;;6228449;23;20750;-80
2023/01/01 03:02:59;;;;;;;10.30;6.13;;;15.00;1.00;;;;;;6228893;23;20387;-82
2023/01/01 03:05:33;;;;;;;12.27;7.30;;;15.00;92.10;;;;;;6226150;23;20438;-81
2023/01/01 03:08:08;;;;;;;10.30;6.40;;;15.10;1.00;;;;;;6222322;23;20485;-80
2023/01/01 03:10:43;;;;;;;10.60;5.90;;;15.00;1.00;;;;;;6221929;23;20719;-82
2023/01/01 03:13:19;;;;;;;8.53;5.70;;;15.10;79.00;;;;;;6222486;23;20458;-81
2023/01/01 03:15:56;;;;;;;7.33;4.50;;;15.00;90.90;;;;;;6228286;23;20408;-81
2023/01/01 03:18:27;;;;;;;8.77;5.60;;;15.40;78.50;;;;;;6227750;23;20771;-81
2023/01/01 03:20:56;;;;;;;9.97;6.97;;;15.00;1.00;;;;;;6225777;23;20814;-81
2023/01/01 03:23:28;;;;;;;12.83;6.43;;;15.00;1.00;;;;;;6236073;23;20418;-81
2023/01/01 03:26:00;;;;;;;10.50;7.20;;;15.00;1.00;;;;;;6236745;23;20497;-80
2023/01/01 03:28:30;;;;;;;9.70;7.00;;;15.00;1.00;;;;;;6235183;23;20902;-81
2023/01/01 03:31:00;;;;;;;6.83;5.40;;;14.90;1.00;;;;;;6231918;23;20433;-81
2023/01/01 03:33:32;;;;;;;7.87;5.17;;;14.90;1.00;;;;;;6223180;23;20403;-81
2023/01/01 03:36:02;;;;;;;6.97;4.77;;;14.90;1.00;;;;;;6230407;22;20418;-81
2023/01/01 03:38:34;;;;;;;8.33;5.43;;;14.90;1.00;;;;;;6220166;23;20483;-81
2023/01/01 03:41:03;;;;;;;10.50;6.43;;;15.00;1.00;;;;;;6222086;23;20505;-81
2023/01/01 03:43:39;;;;;;;10.33;7.23;;;14.90;1.00;;;;;;6240561;23;20406;-80
2023/01/01 03:46:08;;;;;;;9.07;6.23;;;14.70;1.00;;;;;;6236958;23;20472;-81
2023/01/01 03:48:54;;;;;;;7.07;5.77;;;14.60;1.00;;;;;;6222904;23;20410;-81
2023/01/01 03:51:27;;;;;;;7.47;5.30;;;14.90;1.00;;;;;;6222101;23;20393;-82
2023/01/01 03:53:56;;;;;;;7.70;4.63;;;14.60;1.00;;;;;;6230152;23;20430;-81
2023/01/01 03:56:36;;;;;;;10.83;5.47;;;14.60;1.00;;;;;;6238156;23;20438;-82
2023/01/01 03:59:11;;;;;;;13.73;6.90;;;14.60;1.00;;;;;;6244145;22;20434;-82
2023/01/01 04:01:44;;;;;;;11.60;7.57;;;14.60;1.00;;;;;;6228187;23;20516;-82
2023/01/01 04:04:13;;;;;;;10.23;5.63;;;14.50;1.00;;;;;;6224566;23;20410;-81
2023/01/01 04:06:39;;;;;;;7.70;5.40;;;14.90;99.90;;;;;;6221085;23;20458;-81
2023/01/01 04:09:11;;;;;;;12.50;5.33;;;14.70;1.00;;;;;;6221220;23;20962;-81
2023/01/01 04:14:28;;;;;;;6.10;5.50;;;14.60;1.00;;;;;;6222217;23;20348;-79
2023/01/01 04:16:57;;;;;;;11.43;4.97;;;14.60;1.00;;;;;;6221376;23;20477;-81
2023/01/01 04:19:24;;;;;;;7.20;5.00;;;14.50;1.00;;;;;;6221169;23;20401;-81
2023/01/01 04:21:51;;;;;;;8.93;4.80;;;14.50;1.00;;;;;;6221389;23;20441;-81
2023/01/01 04:24:18;;;;;;;5.50;4.33;;;14.50;1.00;;;;;;6221475;23;20506;-80
2023/01/01 04:26:44;;;;;;;4.57;4.10;;;14.50;1.00;;;;;;6220376;23;20947;-81
2023/01/01 04:29:12;;;;;;;6.20;5.20;;;14.50;1.00;;;;;;6221300;23;20493;-81
2023/01/01 04:31:38;;;;;;;5.47;4.97;;;14.50;1.00;;;;;;6221758;23;20978;-82
2023/01/01 04:34:06;;;;;;;7.10;4.70;;;14.40;1.00;;;;;;6221182;23;20982;-80
2023/01/01 04:36:34;;;;;;;8.43;4.67;;;14.50;1.00;;;;;;6220887;23;20422;-80
2023/01/01 04:39:01;;;;;;;8.30;4.90;;;14.50;1.00;;;;;;6221166;23;20413;-81
2023/01/01 04:41:28;;;;;;;7.00;4.70;;;14.50;1.00;;;;;;6220933;23;20966;-82
2023/01/01 04:43:54;;;;;;;8.43;4.33;;;14.50;1.00;;;;;;6220933;23;20415;-81
2023/01/01 04:46:22;;;;;;;7.53;4.10;;;14.50;1.00;;;;;;6220738;23;20984;-80
2023/01/01 04:48:50;;;;;;;8.67;4.67;;;14.50;1.00;;;;;;6223577;23;20466;-80
2023/01/01 04:51:20;;;;;;;8.30;4.77;;;14.50;1.00;;;;;;6225415;23;20402;-80
2023/01/01 04:53:47;;;;;;;9.50;5.17;;;14.50;1.00;;;;;;6226825;23;20477;-80
2023/01/01 04:56:16;;;;;;;7.10;4.20;;;14.40;1.00;;;;;;6224128;23;20525;-81
2023/01/01 04:58:44;;;;;;;4.57;4.00;;;14.50;1.00;;;;;;6220440;23;20417;-81
2023/01/01 05:01:16;;;;;;;7.60;4.40;;;14.50;1.00;;;;;;6221179;23;20438;-81
2023/01/01 05:03:43;;;;;;;5.67;4.87;;;14.50;1.00;;;;;;6221667;23;20474;-81
2023/01/01 05:06:11;;;;;;;4.20;3.70;;;14.50;1.00;;;;;;6220687;23;20430;-81
2023/01/01 05:08:41;;;;;;;6.30;3.60;;;14.50;1.00;;;;;;6220807;23;20437;-81
2023/01/01 05:11:10;;;;;;;16.10;4.13;;;14.80;79.70;;;;;;6220923;23;20486;-81
2023/01/01 05:13:38;;;;;;;7.40;3.70;;;14.50;1.00;;;;;;6221506;23;20410;-81
2023/01/01 05:16:06;;;;;;;4.80;3.60;;;14.50;1.00;;;;;;6221160;23;20469;-80
2023/01/01 05:18:33;;;;;;;9.83;6.30;;;14.50;1.00;;;;;;6219502;23;20485;-81
2023/01/01 05:21:01;;;;;;;6.53;5.63;;;14.70;1.00;;;;;;6219998;23;20481;-81
2023/01/01 05:23:28;;;;;;;5.70;4.10;;;14.50;1.00;;;;;;6226778;23;20406;-81
2023/01/01 05:25:57;;;;;;;6.90;3.27;;;14.60;1.00;;;;;;6221563;23;20768;-81
2023/01/01 05:28:25;;;;;;;6.50;3.83;;;14.20;94.40;;;;;;6219537;23;20406;-81
2023/01/01 05:30:52;;;;;;;6.10;4.37;;;14.50;1.00;;;;;;6219705;23;20398;-80
2023/01/01 05:33:19;;;;;;;4.10;3.70;;;14.70;1.00;;;;;;6243247;22;20386;-81
2023/01/01 05:35:46;;;;;;;5.07;3.70;;;14.40;1.00;;;;;;6244283;22;20437;-81
2023/01/01 05:38:13;;;;;;;5.40;3.57;;;14.40;1.00;;;;;;6244420;22;20399;-82
2023/01/01 05:40:40;;;;;;;4.47;4.03;;;14.50;1.00;;;;;;6236059;23;20438;-80
2023/01/01 05:43:08;;;;;;;4.23;2.70;;;14.40;1.00;;;;;;6238126;23;20403;-80
2023/01/01 05:45:35;;;;;;;4.00;3.20;;;14.50;1.00;;;;;;6237062;23;20451;-80
2023/01/01 05:48:03;;;;;;;8.03;3.20;;;14.50;1.00;;;;;;6237377;23;20414;-81
2023/01/01 05:50:29;;;;;;;6.17;3.97;;;14.40;1.00;;;;;;6238862;23;20417;-80
2023/01/01 05:52:56;;;;;;;3.33;3.00;;;14.60;99.90;;;;;;6238668;23;20413;-80
2023/01/01 05:55:23;;;;;;;5.60;3.30;;;14.20;1.00;;;;;;6239342;23;20422;-80
2023/01/01 05:57:50;;;;;;;5.97;3.57;;;14.20;1.00;;;;;;6230175;23;20406;-80
2023/01/01 06:00:18;;;;;;;5.37;3.80;;;14.20;1.00;;;;;;6227910;23;20433;-80
2023/01/01 06:02:45;;;;;;;5.40;3.27;;;14.10;1.00;;;;;;6224333;23;20505;-80
2023/01/01 06:05:12;;;;;;;6.23;3.43;;;14.00;1.00;;;;;;6223963;23;20517;-81
2023/01/01 06:07:39;;;;;;;3.77;3.30;;;14.10;1.00;;;;;;6224689;23;20494;-80
2023/01/01 06:10:06;;;;;;;4.90;3.13;;;14.10;1.00;;;;;;6223522;23;20417;-81
2023/01/01 06:12:33;;;;;;;6.10;3.53;;;14.10;1.00;;;;;;6224002;23;20394;-80
2023/01/01 06:15:00;;;;;;;3.83;3.37;;;14.00;99.90;;;;;;6223867;23;20489;-80
2023/01/01 06:17:28;;;;;;;4.70;2.83;;;14.00;1.00;;;;;;6239817;23;20851;-80
2023/01/01 06:19:54;;;;;;;5.63;3.60;;;14.10;1.00;;;;;;6241122;23;20436;-80
2023/01/01 06:22:21;;;;;;;3.57;3.10;;;14.10;1.00;;;;;;6240343;23;20493;-81
2023/01/01 06:24:48;;;;;;;4.90;2.70;;;14.00;88.40;;;;;;6239530;23;20377;-80
2023/01/01 06:27:15;;;;;;;6.07;3.70;;;14.10;1.00;;;;;;6238055;23;20442;-80
2023/01/01 06:29:42;;;;;;;7.00;4.37;;;14.10;1.00;;;;;;6224984;23;20781;-80
2023/01/01 06:32:08;;;;;;;6.10;3.27;;;14.10;1.00;;;;;;6223381;23;20440;-81
2023/01/01 06:34:36;;;;;;;6.17;3.73;;;14.00;1.00;;;;;;6226056;23;20804;-81
2023/01/01 06:37:03;;;;;;;4.67;3.30;;;14.00;1.00;;;;;;6232107;23;20494;-81
2023/01/01 06:39:30;;;;;;;6.00;2.90;;;14.10;1.00;;;;;;6237550;23;20406;-80
2023/01/01 06:41:57;;;;;;;6.43;3.00;;;14.20;1.00;;;;;;6238217;23;20506;-81
2023/01/01 06:44:23;;;;;;;5.87;3.60;;;14.20;1.00;;;;;;6230163;23;20461;-80
2023/01/01 06:46:50;;;;;;;8.13;3.10;;;14.20;1.00;;;;;;6223617;23;20449;-81
2023/01/01 06:49:17;;;;;;;3.70;2.77;;;14.30;1.00;;;;;;6222897;23;20445;-81
2023/01/01 06:51:45;;;;;;;9.27;4.47;;;14.20;1.00;;;;;;6222395;23;20489;-81
2023/01/01 06:54:12;;;;;;;6.93;3.97;;;14.20;1.00;;;;;;6223897;23;20440;-81
2023/01/01 06:56:39;;;;;;;6.10;3.63;;;14.30;1.00;;;;;;6238619;23;20445;-80
2023/01/01 06:59:06;;;;;;;4.40;3.73;;;14.40;1.00;;;;;;6242958;23;20394;-80
2023/01/01 07:01:35;;;;;;;4.13;3.07;;;14.40;1.00;;;;;;6234272;23;20473;-81
2023/01/01 07:04:04;;;;;;;5.47;3.50;;;14.30;1.00;;;;;;6222487;23;20937;-81
2023/01/01 07:06:32;;;;;;;8.20;3.20;;;14.30;1.00;;;;;;6222028;23;20421;-81
2023/01/01 07:09:01;;;;;;;4.70;3.33;;;14.30;1.00;;;;;;6227755;23;20406;-80
2023/01/01 07:11:29;;;;;;;7.73;3.90;;;14.30;1.00;;;;;;6232839;23;20430;-80
2023/01/01 07:13:55;;;;;;;7.33;3.70;;;14.30;1.00;;;;;;6230156;22;20840;-81
2023/01/01 07:16:22;;;;;;;5.47;3.90;;;14.30;1.00;;;;;;6220041;23;20430;-81
2023/01/01 07:18:49;;;;;;;7.93;3.70;;;14.30;1.00;;;;;;6221910;23;20493;-80
2023/01/01 07:21:27;;;;;;;11.63;6.10;;;14.60;90.90;;;;;;6222505;23;20843;-80
2023/01/01 07:23:55;;;;;;;5.17;3.43;;;14.30;1.00;;;;;;6222204;23;20425;-80
2023/01/01 07:26:24;;;;;;;5.95;3.25;;;14.00;42.90;;;;;;6220175;23;20394;-80
2023/01/01 07:28:51;;;;;;;5.90;3.60;;;14.30;1.00;;;;;;6221991;23;20206;-81
2023/01/01 07:31:17;;;;;;;5.63;2.97;;;14.30;1.00;;;;;;6224148;23;20405;-81
2023/01/01 07:33:44;;;;;;;6.90;3.90;;;14.40;1.00;;;;;;6223560;23;20805;-81
2023/01/01 07:36:11;;;;;;;8.73;4.03;;;14.40;1.00;;;;;;6223618;23;20513;-81
2023/01/01 07:38:38;;;;;;;5.47;3.97;;;14.30;1.00;;;;;;6224766;23;20935;-81
2023/01/01 07:41:05;;;;;;;5.33;4.10;;;14.30;1.00;;;;;;6236097;23;20902;-81
2023/01/01 07:43:33;;;;;;;8.27;3.70;;;14.40;1.00;;;;;;6238991;23;20430;-80
2023/01/01 07:46:00;;;;;;;7.00;3.40;;;14.40;1.00;;;;;;6239273;23;20430;-81
2023/01/01 07:48:28;;;;;;;10.03;4.77;;;14.40;1.00;;;;;;6222993;23;20441;-80
2023/01/01 07:50:54;;;;;;;11.00;4.20;;;14.40;1.00;;;;;;6232422;23;20369;-80
2023/01/01 07:53:21;;;;;;;8.60;3.70;;;14.40;1.00;;;;;;6227275;23;20441;-80
2023/01/01 07:55:48;;;;;;;9.77;4.70;;;14.40;1.00;;;;;;6225579;23;20834;-80
2023/01/01 07:58:15;;;;;;;7.20;4.20;;;14.40;1.00;;;;;;6228636;23;20426;-80
2023/01/01 08:00:47;;;;;;;6.57;4.20;;;14.40;1.00;;;;;;6227137;23;20377;-80
2023/01/01 08:03:13;;;;;;;5.33;4.13;;;14.40;1.00;;;;;;6224931;23;20427;-80
2023/01/01 08:05:40;;;;;;;7.43;4.10;;;14.40;1.00;;;;;;6221834;23;20397;-82
2023/01/01 08:08:07;;;;;;;7.87;4.30;;;14.50;1.00;;;;;;6233081;23;20421;-80
2023/01/01 08:10:34;;;;;;;6.33;4.17;;;14.50;1.00;;;;;;6226421;23;20915;-80
2023/01/01 08:13:01;;;;;;;7.33;4.50;;;;;;;;;;6231636;23;20403;-80
2023/01/01 08:15:28;;;;;;;8.10;4.90;;;14.50;1.00;;;;;;6232968;23;20401;-81
2023/01/01 08:17:57;;;;;;;7.47;4.80;;;14.50;1.00;;;;;;6225471;23;20416;-82
2023/01/01 08:20:24;;;;;;;6.97;4.03;;;14.50;1.00;;;;;;6221274;23;20782;-80
2023/01/01 08:22:51;;;;;;;5.17;4.50;;;14.50;1.00;;;;;;6221993;23;20430;-81
2023/01/01 08:27:47;;;;;;;5.27;4.03;;;;;;;;;;6261599;23;20389;-86
2023/01/01 08:30:15;;;;;;;6.80;3.73;;;14.60;1.00;;;;;;6259912;23;20425;-87
2023/01/01 08:32:46;;;;;;;14.40;4.63;;;14.60;1.00;;;;;;6261330;22;20461;-85
2023/01/01 08:35:15;;;;;;;7.80;4.73;;;14.60;1.00;;;;;;6260920;22;20728;-85
2023/01/01 08:37:57;;;;;;;4.77;4.27;;;14.60;1.00;;;;;;6229723;23;20403;-86
2023/01/01 08:40:23;;;;;;;7.77;4.93;;;14.70;73.60;;;;;;6227861;23;20426;-87
2023/01/01 08:42:50;;;;;;;6.87;4.53;;;14.60;1.00;;;;;;6230645;23;20465;-86
2023/01/01 08:45:17;;;;;;;5.60;3.93;;;14.80;94.00;;;;;;6234037;23;20430;-84
2023/01/01 08:47:44;;;;;;;4.33;3.80;;;14.60;1.00;;;;;;6231499;23;20407;-86
2023/01/01 08:50:10;;;;;;;4.77;4.10;;;14.70;1.00;;;;;;6230647;23;20409;-86
2023/01/01 08:52:39;;;;;;;5.57;4.47;;;14.70;1.00;;;;;;6230971;23;20410;-85
2023/01/01 08:55:06;;;;;;;4.63;4.23;;;14.70;1.00;;;;;;6229535;23;20459;-85
2023/01/01 08:57:33;;;;;;;4.40;3.90;;;14.70;1.00;;;;;;6230690;23;20487;-86
2023/01/01 09:00:00;;;;;;;4.60;4.00;;;14.80;1.00;;;;;;6240012;22;20395;-84
2023/01/01 09:02:27;;;;;;;7.80;4.20;;;14.80;1.00;;;;;;6243985;22;20426;-85
2023/01/01 09:04:53;;;;;;;6.90;4.03;;;14.80;1.00;;;;;;6243801;22;20415;-85
2023/01/01 09:07:20;;;;;;;5.33;4.40;;;14.90;1.00;;;;;;6234288;23;20506;-86
2023/01/01 09:09:48;;;;;;;4.53;3.37;;;14.80;1.00;;;;;;6230413;23;20430;-86
2023/01/01 09:12:16;;;;;;;4.37;3.97;;;14.80;1.00;;;;;;6229445;23;20490;-86
2023/01/01 09:14:47;;;;;;;5.70;4.20;;;14.80;1.00;;;;;;6230640;23;20441;-87
2023/01/01 09:17:14;;;;;;;6.50;4.03;;;14.80;1.00;;;;;;6232964;23;20437;-85
2023/01/01 09:19:41;;;;;;;4.60;3.50;;;14.80;1.00;;;;;;6222341;23;20406;-85
2023/01/01 09:22:09;;;;;;;4.60;3.67;;;14.50;73.30;;;;;;6222832;23;20445;-85
2023/01/01 09:24:36;;;;;;;7.13;3.73;;;14.80;1.00;;;;;;6222969;23;20441;-86
2023/01/01 09:27:04;;;;;;;6.57;3.63;;;14.80;1.00;;;;;;6244325;22;20497;-86
2023/01/01 09:29:31;;;;;;;9.00;4.70;;;14.80;1.00;;;;;;6255787;23;20461;-85
2023/01/01 09:31:58;;;;;;;5.00;4.40;;;14.80;1.00;;;;;;6257351;23;20465;-85
2023/01/01 09:34:24;;;;;;;4.93;3.30;;;14.80;1.00;;;;;;6264348;23;20390;-83
2023/01/01 09:36:51;;;;;;;5.10;3.37;;;14.80;1.00;;;;;;6273408;23;20387;-83
2023/01/01 09:39:18;;;;;;;3.63;3.27;;;14.80;1.00;;;;;;6273302;22;20391;-86
2023/01/01 09:42:20;;;;;;;7.87;3.53;;;14.80;95.70;;;;;;6272915;22;20380;-83
2023/01/01 09:45:19;;;;;;;4.87;4.17;;;14.90;1.00;;;;;;6247830;23;20425;-86
2023/01/01 09:47:50;;;;;;;8.83;3.83;;;14.90;1.00;;;;;;6261151;23;20389;-86
2023/01/01 09:50:20;;;;;;;3.63;3.27;;;14.90;1.00;;;;;;6261520;23;20417;-86
2023/01/01 09:52:53;;;;;;;5.13;4.10;;;15.00;1.00;;;;;;6264265;22;20394;-86
2023/01/01 09:55:27;;;;;;;6.63;3.83;;;15.10;92.30;;;;;;6261851;23;20389;-85
2023/01/01 09:57:55;;;;;;;7.40;3.97;;;15.10;1.00;;;;;;6263594;23;20397;-85
2023/01/01 10:00:24;;;;;;;6.63;3.37;;;15.10;1.00;;;;;;6266831;23;20428;-86
2023/01/01 10:03:11;;;;;;;4.57;4.13;;;14.60;69.40;;;;;;6259669;23;20444;-86
2023/01/01 10:05:48;;;;;;;6.00;3.30;;;15.10;1.00;;;;;;6259425;23;20420;-86
2023/01/01 10:08:23;;;;;;;4.87;3.30;;;14.80;1.00;;;;;;6258723;23;20785;-86
2023/01/01 10:10:56;;;;;;;5.37;3.57;;;15.10;1.00;;;;;;6258838;23;20516;-87
2023/01/01 10:13:28;;;;;;;6.17;3.37;;;15.20;1.00;;;;;;6261103;23;20409;-84
2023/01/01 10:16:01;;;;;;;3.67;2.70;;;15.20;1.00;;;;;;6258389;23;20457;-86
2023/01/01 10:18:32;;;;;;;4.07;2.60;;;15.30;1.00;;;;;;6258331;23;20425;-86
2023/01/01 10:21:05;;;;;;;4.00;3.60;;;15.30;1.00;;;;;;6259257;23;20386;-86
2023/01/01 10:23:43;;;;;;;9.40;3.53;;;16.20;73.00;;;;;;6258042;23;20945;-86
2023/01/01 10:26:13;;;;;;;6.00;3.97;;;15.40;1.00;;;;;;6258480;22;20433;-86
2023/01/01 10:28:47;;;;;;;3.80;3.00;;;15.30;1.00;;;;;;6257496;23;20430;-86
2023/01/01 10:31:20;;;;;;;6.43;3.53;;;15.40;1.00;;;;;;6260559;23;20382;-86
2023/01/01 10:33:47;;;;;;;4.83;3.47;;;15.40;1.00;;;;;;6261896;23;20426;-87
2023/01/01 10:36:17;;;;;;;4.10;2.93;;;15.50;1.00;;;;;;6260025;23;20423;-86
2023/01/01 10:38:44;;;;;;;3.83;3.10;;;15.40;1.00;;;;;;6257365;23;20405;-86
2023/01/01 10:41:12;;;;;;;5.50;3.17;;;;;;;;;;6257632;23;20405;-84
2023/01/01 10:43:39;;;;;;;3.83;2.70;;;15.40;1.00;;;;;;6252666;23;20440;-84
2023/01/01 10:46:06;;;;;;;4.47;3.10;;;15.40;1.00;;;;;;6256301;23;20476;-86
2023/01/01 10:48:35;;;;;;;3.57;3.27;;;15.40;1.00;;;;;;6257156;23;20436;-86
2023/01/01 10:51:05;;;;;;;4.70;3.53;;;15.40;1.00;;;;;;6260448;23;20456;-86
2023/01/01 10:53:34;;;;;;;4.57;3.00;;;15.40;1.00;;;;;;6260404;23;20849;-85
2023/01/01 10:56:07;;;;;;;12.30;4.20;;;15.40;1.00;;;;;;6260323;23;20836;-85
2023/01/01 10:58:37;;;;;;;3.80;3.00;;;15.40;1.00;;;;;;6259025;23;20390;-86
2023/01/01 11:01:06;;;;;;;3.80;3.03;;;15.30;1.00;;;;;;6260234;23;20454;-86
2023/01/01 11:03:34;;;;;;;5.40;3.67;;;15.40;1.00;;;;;;6261903;23;20438;-86
2023/01/01 11:06:19;;;;;;;7.83;3.80;;;15.40;1.00;;;;;;6261145;23;20426;-84
2023/01/01 11:08:49;;;;;;;3.53;2.67;;;15.80;43.20;;;;;;6259280;23;20405;-86
2023/01/01 11:11:27;;;;;;;7.10;3.03;;;15.40;1.00;;;;;;6268612;23;20384;-84
2023/01/01 11:13:57;;;;;;;5.33;2.93;;;15.50;1.00;;;;;;6275068;23;20396;-87
2023/01/01 11:16:25;;;;;;;5.43;3.00;;;15.50;1.00;;;;;;6274115;23;20417;-86
2023/01/01 11:19:01;;;;;;;3.10;2.90;;;15.50;1.00;;;;;;6265901;23;20412;-86
2023/01/01 11:21:28;;;;;;;6.20;3.27;;;15.20;39.60;;;;;;6264713;23;20414;-87
2023/01/01 11:24:12;;;;;;;4.17;2.80;;;15.50;1.00;;;;;;6266393;23;20465;-86
2023/01/01 11:26:38;;;;;;;3.83;3.43;;;15.70;36.70;;;;;;6265496;23;20441;-87
2023/01/01 11:29:19;;;;;;;4.67;2.70;;;15.50;1.00;;;;;;6263064;23;20412;-88
2023/01/01 11:31:47;;;;;;;5.63;2.93;;;15.50;1.00;;;;;;6261216;23;20385;-86
2023/01/01 11:34:31;;;;;;;4.67;2.70;;;15.50;1.00;;;;;;6261957;23;20401;-87
2023/01/01 11:37:19;;;;;;;2.60;2.40;;;15.20;33.00;;;;;;6261730;23;20425;-86
2023/01/01 11:39:49;;;;;;;5.23;3.77;;;15.50;1.00;;;;;;6259891;23;20726;-87
2023/01/01 11:42:19;;;;;;;5.27;3.33;;;15.50;1.00;;;;;;6260704;22;20409;-86
2023/01/01 11:44:47;;;;;;;6.67;3.17;;;15.60;1.00;;;;;;6252004;23;20956;-87
2023/01/01 11:47:27;;;;;;;4.93;3.60;;;15.60;1.00;;;;;;6266552;23;20425;-85
2023/01/01 11:49:59;;;;;;;4.90;3.00;;;15.60;1.00;;;;;;6274670;23;20389;-86
2023/01/01 11:52:29;;;;;;;3.80;2.50;;;15.60;1.00;;;;;;6274565;23;20386;-85
2023/01/01 11:55:03;;;;;;;2.70;2.50;;;15.60;1.00;;;;;;6261957;23;20406;-86
2023/01/01 11:57:30;;;;;;;5.83;2.90;;;15.50;1.00;;;;;;6267059;23;20424;-86
2023/01/01 12:00:06;;;;;;;4.00;3.00;;;15.50;1.00;;;;;;6265760;23;20440;-86
2023/01/01 12:02:38;;;;;;;4.30;3.20;;;15.50;1.00;;;;;;6261399;23;20488;-86
2023/01/01 12:05:16;;;;;;;2.60;2.40;;;15.60;1.00;;;;;;6261038;23;20456;-86
2023/01/01 12:07:44;;;;;;;3.37;3.07;;;15.60;1.00;;;;;;6267000;22;20412;-84
2023/01/01 12:10:19;;;;;;;8.90;3.47;;;15.50;1.00;;;;;;6275144;22;20385;-83
2023/01/01 12:12:50;;;;;;;4.93;3.23;;;15.50;1.00;;;;;;6268217;22;20424;-86
2023/01/01 12:15:23;;;;;;;3.93;3.03;;;15.20;1.00;;;;;;6261939;23;20420;-85
2023/01/01 12:17:59;;;;;;;4.13;3.53;;;15.60;1.00;;;;;;6260157;23;20390;-86
2023/01/01 12:20:32;;;;;;;5.47;3.07;;;15.60;1.00;;;;;;6261685;23;20401;-86
2023/01/01 12:23:00;;;;;;;5.00;3.83;;;15.50;1.00;;;;;;6262137;23;20928;-85
2023/01/01 12:25:35;;;;;;;4.50;3.00;;;15.30;58.00;;;;;;6262099;22;20410;-85
2023/01/01 12:28:17;;;;;;;6.40;3.47;;;15.50;1.00;;;;;;6261493;23;20389;-86
2023/01/01 12:30:55;;;;;;;5.90;3.93;;;15.50;1.00;;;;;;6262583;23;20401;-86
2023/01/01 12:33:44;;;;;;;3.53;2.40;;;15.60;1.00;;;;;;6260219;23;20472;-86
2023/01/01 12:36:23;;;;;;;3.90;3.30;;;15.50;1.00;;;;;;6262105;23;20452;-86
2023/01/01 12:39:43;;;;;;;6.93;3.70;;;15.80;37.90;;;;;;6262902;23;20458;-87
2023/01/01 12:42:17;;;;;;;3.47;3.00;;;15.50;1.00;;;;;;6261842;23;20404;-86
2023/01/01 12:44:54;;;;;;;3.50;2.67;;;15.40;1.00;;;;;;6262331;23;20426;-87
2023/01/01 12:47:33;;;;;;;8.27;3.20;;;15.40;1.00;;;;;;6262033;23;20809;-87
2023/01/01 12:50:09;;;;;;;3.73;3.37;;;15.40;1.00;;;;;;6266466;23;20425;-88
2023/01/01 12:52:48;;;;;;;6.10;3.00;;;15.40;1.00;;;;;;6268350;23;20417;-87
2023/01/01 12:55:52;;;;;;;7.80;3.17;;;15.30;1.00;;;;;;6264455;23;20378;-87
2023/01/01 12:58:22;;;;;;;7.40;3.63;;;15.30;1.00;;;;;;6214213;23;20424;-86
2023/01/01 13:00:56;;;;;;;8.40;4.40;;;15.20;1.00;;;;;;6260663;23;20398;-86
2023/01/01 13:03:31;;;;;;;5.07;3.93;;;15.30;1.00;;;;;;6252884;23;20508;-86
2023/01/01 13:06:00;;;;;;;8.03;4.40;;;15.20;1.00;;;;;;6255474;23;20429;-85
2023/01/01 13:08:28;;;;;;;4.20;3.43;;;15.20;1.00;;;;;;6259991;23;20405;-85
2023/01/01 13:10:57;;;;;;;7.83;3.73;;;15.20;1.00;;;;;;6260864;23;20425;-85
2023/01/01 13:13:25;;;;;;;10.57;3.37;;;15.20;1.00;;;;;;6261790;23;20432;-86
2023/01/01 13:15:54;;;;;;;5.30;3.17;;;15.30;95.00;;;;;;6261458;23;20497;-86